Flight Track Log - Related Links

Times and Time Zones

All times are in EDT time to prevent confusion due to time zone crossing. See the N559LC flight status page for this flight to view local times or setup timezone preferences in your user account.

Time Position Orientation Groundspeed Altitude Reporting Facility
EDT Latitude Longitude Course Direction KTS MPH feet Rate Location/Type
Thu 11:43:33 AM 42.1944 -83.3542 226° Southwest 159 183 1,400  Level Cleveland Center
Thu 11:44:40 AM 42.1544 -83.4106 226° Southwest 232 267 4,000 2,400 Climbing Cleveland Center
Thu 11:45:18 AM 42.1547 -83.4603 270° West 245 282 5,600 3,246 Climbing Cleveland Center
Thu 11:45:41 AM 42.1708 -83.4944 302° West 239 275 7,300 3,581 Climbing Cleveland Center
Thu 11:46:20 AM 42.1892 -83.5386 299° West 242 278 9,300 2,376 Climbing Cleveland Center
Thu 11:47:22 AM 42.2186 -83.6181 297° West 261 300 11,300 2,537 Climbing Cleveland Center
Thu 11:48:23 AM 42.2633 -83.7436 296° West 303 349 14,500 3,024 Climbing Cleveland Center
Thu 11:49:25 AM 42.3033 -83.8503 297° West 313 360 17,500 2,585 Climbing Cleveland Center
Thu 11:50:26 AM 42.3425 -83.9589 296° West 320 368 19,800 2,244 Climbing Cleveland Center
Thu 11:51:28 AM 42.3831 -84.0706 296° West 327 376 22,100 2,129 Climbing Cleveland Center
Thu 11:52:30 AM 42.4228 -84.1878 295° West 339 390 24,200 1,951 Climbing Cleveland Center
Thu 11:53:31 AM 42.4319 -84.3258 275° West 365 420 26,100 1,941 Climbing Cleveland Center
Thu 11:54:12 AM 42.4358 -84.4419 273° West 376 433 27,500 1,631 Climbing Chicago Center
Thu 11:55:14 AM 42.4381 -84.5878 271° West 386 444 28,900 1,210 Climbing Chicago Center
Thu 11:56:16 AM 42.4411 -84.7378 272° West 397 457 30,000 532 Climbing Chicago Center
Thu 11:57:18 AM 42.4450 -84.8811 272° West 388 447 30,000 774 Level Chicago Center
Thu 11:58:20 AM 42.4475 -85.0261 271° West 386 444 31,600 968 Climbing Chicago Center
Thu 11:59:22 AM 42.4511 -85.1728 272° West 389 448 32,000 629 Climbing Chicago Center
Thu 12:00:24 PM 42.4536 -85.3239 271° West 396 456 32,900 968 Climbing Chicago Center
Thu 12:01:26 PM 42.4569 -85.5100 271° West 407 468 34,000 532 Climbing Chicago Center
Thu 12:02:28 PM 42.4567 -85.6644 270° West 409 471 34,000 194 Level Chicago Center
Thu 12:03:30 PM 42.4406 -85.8192 262° West 410 472 34,400 774 Climbing Chicago Center
Thu 12:04:32 PM 42.4242 -85.9747 262° West 416 479 35,600 871 Climbing Chicago Center
Thu 12:05:34 PM 42.4097 -86.1308 263° West 417 480 36,200 629 Climbing Chicago Center
Thu 12:06:36 PM 42.3922 -86.2864 261° West 417 480 36,900 726 Climbing Chicago Center
Thu 12:07:38 PM 42.3767 -86.4428 262° West 418 481 37,700 878 Climbing Chicago Center
Thu 12:08:39 PM 42.3575 -86.6275 262° West 411 473 38,700 829 Climbing Chicago Center
Thu 12:09:41 PM 42.3444 -86.7642 263° West 405 466 39,400 629 Climbing Chicago Center
Thu 12:10:43 PM 42.3294 -86.9067 262° West 390 449 40,000 290 Climbing Chicago Center
Thu 12:11:45 PM 42.3094 -87.0756 261° West 384 442 40,000  Level Chicago Center
Thu 12:12:47 PM 42.2933 -87.2189 261° West 388 447 40,000  Level Chicago Center
Thu 12:13:49 PM 42.2769 -87.3656 261° West 397 457 40,000  Level Chicago Center
Thu 12:14:51 PM 42.2608 -87.5114 262° West 398 458 40,000  Level Chicago Center
Thu 12:15:53 PM 42.2436 -87.6586 261° West 401 461 40,000  Level Chicago Center
Thu 12:16:55 PM 42.2233 -87.8367 261° West 403 464 40,000  Level Chicago Center
Thu 12:17:57 PM 42.2061 -87.9867 261° West 409 471 40,000  Level Chicago Center
Thu 12:18:59 PM 42.1892 -88.1356 261° West 408 470 40,000  Level Chicago Center
Thu 12:20:01 PM 42.1708 -88.2817 260° West 403 464 40,000  Level Chicago Center
Thu 12:21:03 PM 42.1492 -88.4639 261° West 409 471 40,000  Level Chicago Center
Thu 12:22:05 PM 42.1289 -88.6206 260° West 421 484 40,000  Level Chicago Center
Thu 12:23:07 PM 42.1111 -88.7742 261° West 421 484 40,000  Level Chicago Center
Thu 12:24:09 PM 42.0906 -88.9319 260° West 421 484 40,000  Level Chicago Center
Thu 12:25:11 PM 42.0711 -89.0878 261° West 422 486 40,000  Level Chicago Center
Thu 12:26:13 PM 42.0469 -89.2731 260° West 435 501 40,000  Level Chicago Center
Thu 12:27:15 PM 42.0272 -89.4317 261° West 431 496 40,000  Level Chicago Center
Thu 12:28:17 PM 42.0064 -89.5894 260° West 429 494 40,000  Level Chicago Center
Thu 12:29:20 PM 41.9853 -89.7469 260° West 428 493 40,000  Level Chicago Center
Thu 12:30:22 PM 41.9628 -89.9206 260° West 425 489 40,000  Level Chicago Center
Thu 12:31:24 PM 41.9433 -90.0606 259° West 431 496 40,000  Level Chicago Center
Thu 12:33:28 PM 41.8975 -90.3967 260° West 418 481 40,000  Level Chicago Center
Thu 12:34:30 PM 41.8772 -90.5492 260° West 418 481 40,000  Level Chicago Center
Thu 12:35:32 PM 41.8531 -90.7072 258° West 430 495 40,000  Level Chicago Center
Thu 12:36:34 PM 41.8303 -90.8633 259° West 431 496 40,000  Level Chicago Center
Thu 12:37:36 PM 41.8089 -91.0153 259° West 424 488 40,000  Level Chicago Center
Thu 12:38:38 PM 41.7822 -91.1992 259° West 421 484 40,000  Level Chicago Center
Thu 12:39:40 PM 41.7586 -91.3544 259° West 426 490 40,000  Level Chicago Center
Thu 12:40:42 PM 41.7353 -91.5089 259° West 425 489 40,000  Level Chicago Center
Thu 12:41:44 PM 41.7122 -91.6611 259° West 422 486 40,000  Level Chicago Center
Thu 12:42:47 PM 41.6878 -91.8150 258° West 423 487 40,000  Level Chicago Center
Thu 12:43:49 PM 41.6647 -91.9689 259° West 423 487 40,000  Level Chicago Center
Thu 12:44:51 PM 41.6369 -92.1506 258° West 418 481 40,000  Level Chicago Center
Thu 12:45:53 PM 41.6133 -92.3014 258° West 417 480 40,000  Level Chicago Center
Thu 12:46:55 PM 41.5894 -92.4528 258° West 418 481 40,000  Level Chicago Center
Thu 12:47:57 PM 41.5647 -92.6050 258° West 422 486 40,000  Level Chicago Center
Thu 12:48:46 PM 41.5411 -92.7506 258° West 420 483 40,000  Level Minneapolis Center
Thu 12:49:48 PM 41.5169 -92.9008 258° West 420 483 40,000  Level Minneapolis Center
Thu 12:50:50 PM 41.4922 -93.0519 258° West 420 483 40,000  Level Minneapolis Center
Thu 12:51:52 PM 41.4672 -93.2031 258° West 420 483 40,000  Level Minneapolis Center
Thu 12:52:54 PM 41.4408 -93.3564 257° West 422 486 40,000  Level Minneapolis Center
Thu 12:53:56 PM 41.4097 -93.5403 257° West 427 491 40,000  Level Minneapolis Center
Thu 12:54:59 PM 41.3842 -93.6936 258° West 427 491 40,000  Level Minneapolis Center
Thu 12:56:01 PM 41.3572 -93.8469 257° West 428 493 40,000  Level Minneapolis Center
Thu 12:57:03 PM 41.3325 -93.9989 258° West 427 491 40,000  Level Minneapolis Center
Thu 12:58:05 PM 41.3042 -94.1539 256° West 428 493 40,000  Level Minneapolis Center
Thu 12:59:07 PM 41.2719 -94.3369 257° West 428 493 40,000  Level Minneapolis Center
Thu 01:00:09 PM 41.2447 -94.4928 257° West 428 493 40,000  Level Minneapolis Center
Thu 01:01:11 PM 41.2164 -94.6508 257° West 433 498 40,000  Level Minneapolis Center
Thu 01:02:13 PM 41.1883 -94.8078 257° West 435 501 40,000  Level Minneapolis Center
Thu 01:03:15 PM 41.1594 -94.9636 256° West 435 501 40,000  Level Minneapolis Center
Thu 01:04:17 PM 41.1306 -95.1186 256° West 435 501 40,000 339 Level Minneapolis Center
Thu 01:05:19 PM 41.0967 -95.3006 256° West 430 495 40,700 629 Climbing Minneapolis Center
Thu 01:06:21 PM 41.0692 -95.4467 256° West 415 478 41,300 484 Climbing Minneapolis Center
Thu 01:07:23 PM 41.0425 -95.5869 256° West 398 458 41,700 435 Climbing Minneapolis Center
Thu 01:08:25 PM 41.0164 -95.7250 256° West 389 448 42,200 387 Climbing Minneapolis Center
Thu 01:09:27 PM 40.9906 -95.8611 256° West 383 441 42,500 387 Climbing Minneapolis Center
Thu 01:10:29 PM 40.9650 -95.9947 256° West 378 435 43,000 242 Climbing Minneapolis Center
Thu 01:11:31 PM 40.9389 -96.1289 256° West 377 434 43,000  Level Minneapolis Center
Thu 01:12:33 PM 40.9128 -96.2636 256° West 377 434 43,000  Level Minneapolis Center
Thu 01:13:35 PM 40.8808 -96.4269 256° West 377 434 43,000  Level Minneapolis Center
Thu 01:14:37 PM 40.8539 -96.5647 256° West 381 438 43,000  Level Minneapolis Center
Thu 01:15:39 PM 40.8256 -96.7025 255° West 386 444 43,000  Level Minneapolis Center
Thu 01:16:41 PM 40.7975 -96.8417 255° West 386 444 43,000  Level Minneapolis Center
Thu 01:17:43 PM 40.7692 -96.9803 255° West 387 445 43,000  Level Minneapolis Center
Thu 01:18:45 PM 40.7408 -97.1211 255° West 393 452 43,000  Level Minneapolis Center
Thu 01:19:47 PM 40.7125 -97.2631 255° West 398 458 43,000  Level Minneapolis Center
Thu 01:20:49 PM 40.6772 -97.4267 254° West 398 458 43,000  Level Minneapolis Center
Thu 01:21:51 PM 40.6486 -97.5700 255° West 399 459 43,000  Level Minneapolis Center
Thu 01:22:53 PM 40.6181 -97.7139 254° West 402 463 43,000  Level Minneapolis Center
Thu 01:23:55 PM 40.5881 -97.8581 255° West 403 464 43,000  Level Minneapolis Center
Thu 01:24:57 PM 40.5572 -98.0025 254° West 405 466 43,000  Level Minneapolis Center
Thu 01:25:59 PM 40.5203 -98.1750 254° West 405 466 43,000  Level Minneapolis Center
Thu 01:27:01 PM 40.4892 -98.3186 254° West 405 466 43,000  Level Minneapolis Center
Thu 01:28:03 PM 40.4583 -98.4622 254° West 405 466 43,000  Level Minneapolis Center
Thu 01:29:05 PM 40.4261 -98.6061 254° West 406 467 43,000  Level Minneapolis Center
Thu 01:30:07 PM 40.3950 -98.7508 254° West 406 467 43,000  Level Minneapolis Center
Thu 01:31:09 PM 40.3639 -98.8936 254° West 406 467 43,000  Level Minneapolis Center
Thu 01:32:11 PM 40.3319 -99.0356 254° West 406 467 43,000  Level Minneapolis Center
Thu 01:33:09 PM 40.3003 -99.1772 254° West 406 467 43,000  Level Denver Center
Thu 01:34:22 PM 40.2683 -99.3186 254° West 404 465 43,000  Level Denver Center
Thu 01:35:26 PM 40.2297 -99.4897 254° West 404 465 43,000  Level Denver Center
Thu 01:36:27 PM 40.1972 -99.6303 253° West 402 463 43,000  Level Denver Center
Thu 01:37:31 PM 40.1586 -99.7992 253° West 403 464 43,000  Level Denver Center
Thu 01:38:32 PM 40.1289 -99.9264 253° West 403 464 43,000  Level Denver Center
Thu 01:39:35 PM 40.0928 -100.0817 253° West 401 461 43,000  Level Denver Center
Thu 01:40:37 PM 40.0611 -100.2144 253° West 401 461 43,000  Level Denver Center
Thu 01:41:37 PM 40.0250 -100.3708 253° West 401 461 43,000  Level Denver Center
Thu 01:42:42 PM 39.9928 -100.5053 253° West 401 461 43,000  Level Denver Center
Thu 01:43:42 PM 39.9553 -100.6603 253° West 402 463 43,000  Level Denver Center
Thu 01:44:46 PM 39.9231 -100.7931 252° West 400 460 43,000  Level Denver Center
Thu 01:45:47 PM 39.8864 -100.9444 253° West 396 456 43,000  Level Denver Center
Thu 01:46:50 PM 39.8550 -101.0733 252° West 392 451 43,000  Level Denver Center
Thu 01:47:51 PM 39.8194 -101.2222 253° West 390 449 43,000  Level Denver Center
Thu 01:48:53 PM 39.7875 -101.3492 252° West 387 445 43,000  Level Denver Center
Thu 01:49:54 PM 39.7556 -101.4775 251° West 387 445 43,000  Level Denver Center
Thu 01:50:00 PM 39.7485 -101.5002 251° West  Level FlightAware
Thu 01:50:58 PM 39.7189 -101.6272 252° West 387 445 43,000  Level Denver Center
Thu 01:52:01 PM 39.6872 -101.7556 252° West 388 447 43,000  Level Denver Center
Thu 01:53:01 PM 39.6489 -101.9053 252° West 390 449 43,000  Level Denver Center
Thu 01:54:17 PM 39.6150 -102.0350 251° West 391 450 43,000  Level Denver Center
Thu 01:55:18 PM 39.5731 -102.2081 253° West 392 451 43,000  Level Denver Center
Thu 01:56:21 PM 39.5336 -102.3575 251° West 392 451 43,000  Level Denver Center
Thu 01:57:23 PM 39.5028 -102.4769 252° West 393 452 43,000  Level Denver Center
Thu 01:58:26 PM 39.4683 -102.6111 252° West 394 453 43,000  Level Denver Center
Thu 01:59:26 PM 39.4253 -102.7714 251° West 394 453 43,000  Level Denver Center
Thu 02:00:27 PM 39.3906 -102.9056 252° West 394 453 43,000  Level Denver Center
Thu 02:01:31 PM 39.3550 -103.0392 251° West 394 453 43,000  Level Denver Center
Thu 02:02:33 PM 39.3197 -103.1753 252° West 396 456 43,000  Level Denver Center
Thu 02:03:34 PM 39.2836 -103.3103 251° West 396 456 43,000  Level Denver Center
Thu 02:04:37 PM 39.2475 -103.4422 251° West 395 455 43,000  Level Denver Center
Thu 02:05:38 PM 39.2067 -103.6003 252° West 390 449 43,000  Level Denver Center
Thu 02:06:42 PM 39.1711 -103.7297 251° West 387 445 43,000  Level Denver Center
Thu 02:07:43 PM 39.1350 -103.8592 250° West 386 444 43,000  Level Denver Center
Thu 02:08:46 PM 39.0981 -103.9919 250° West 390 449 43,000  Level Denver Center
Thu 02:09:46 PM 39.0633 -104.1236 251° West 390 449 43,000  Level Denver Center
Thu 02:10:50 PM 39.0264 -104.2569 250° West 391 450 43,000  Level Denver Center
Thu 02:11:52 PM 38.9819 -104.4169 250° West 395 455 43,000  Level Denver Center
Thu 02:12:54 PM 38.9433 -104.5519 250° West 399 459 43,000  Level Denver Center
Thu 02:13:56 PM 38.9056 -104.6856 250° West 399 459 43,000  Level Denver Center
Thu 02:14:58 PM 38.8678 -104.8194 250° West 399 459 43,000  Level Denver Center
Thu 02:15:59 PM 38.8306 -104.9528 250° West 397 457 43,000  Level Denver Center
Thu 02:17:03 PM 38.7922 -105.0867 250° West 397 457 43,000  Level Denver Center
Thu 02:18:04 PM 38.7614 -105.1928 250° West 397 457 43,000  Level Denver Center
Thu 02:19:05 PM 38.7078 -105.3797 250° West 398 458 43,000  Level Denver Center
Thu 02:20:08 PM 38.6686 -105.5122 249° West 398 458 43,000  Level Denver Center
Thu 02:21:09 PM 38.6303 -105.6456 250° West 398 458 43,000  Level Denver Center
Thu 02:22:12 PM 38.5914 -105.7767 249° West 398 458 43,000  Level Denver Center
Thu 02:23:16 PM 38.5511 -105.9131 249° West 398 458 43,000  Level Denver Center
Thu 02:24:18 PM 38.5067 -106.0608 249° West 399 459 43,000  Level Denver Center
Thu 02:25:18 PM 38.4731 -106.1761 250° West 398 458 43,000  Level Denver Center
Thu 02:26:21 PM 38.4306 -106.3175 249° West 399 459 43,000  Level Denver Center
Thu 02:27:22 PM 38.3981 -106.4253 249° West 399 459 43,000  Level Denver Center
Thu 02:28:25 PM 38.3447 -106.5997 249° West 400 460 43,000  Level Denver Center
Thu 02:29:27 PM 38.2992 -106.7469 249° West 400 460 43,000  Level Denver Center
Thu 02:30:30 PM 38.2683 -106.8511 249° West 400 460 43,000  Level Denver Center
Thu 02:31:32 PM 38.2194 -107.0078 248° West 400 460 43,000  Level Denver Center
Thu 02:32:33 PM 38.1786 -107.1417 249° West 399 459 43,000  Level Denver Center
Thu 02:33:35 PM 38.1308 -107.2942 248° West 399 459 43,000  Level Denver Center
Thu 02:34:36 PM 38.0933 -107.4197 249° West 399 459 43,000  Level Denver Center
Thu 02:35:40 PM 38.0483 -107.5631 248° West 399 459 43,000  Level Denver Center
Thu 02:36:42 PM 38.0089 -107.6881 248° West 398 458 43,000  Level Denver Center
Thu 02:37:43 PM 37.9689 -107.8114 248° West 398 458 43,000  Level Denver Center
Thu 02:38:46 PM 37.9231 -107.9567 248° West 398 458 43,000  Level Denver Center
Thu 02:39:59 PM 37.8703 -108.1225 248° West 398 458 43,000  Level Denver Center
Thu 02:41:03 PM 37.8306 -108.2478 248° West 398 458 43,000  Level Denver Center
Thu 02:42:03 PM 37.7833 -108.3925 248° West 401 461 43,000  Level Denver Center
Thu 02:43:04 PM 37.7431 -108.5181 248° West 402 463 43,000  Level Denver Center
Thu 02:44:07 PM 37.6958 -108.6644 248° West 400 460 43,000  Level Denver Center
Thu 02:45:08 PM 37.6556 -108.7872 248° West 400 460 43,000  Level Denver Center
Thu 02:46:12 PM 37.6150 -108.9078 247° West 394 453 43,000  Level Denver Center
Thu 02:47:12 PM 37.5683 -109.0503 248° West 392 451 43,000  Level Denver Center
Thu 02:48:15 PM 37.5283 -109.1719 248° West 393 452 43,000  Level Denver Center
Thu 02:49:16 PM 37.4814 -109.3128 247° West 393 452 43,000  Level Denver Center
Thu 02:50:20 PM 37.4417 -109.4336 248° West 392 451 43,000  Level Denver Center
Thu 02:51:20 PM 37.3931 -109.5747 247° West 392 451 43,000  Level Denver Center
Thu 02:52:23 PM 37.3531 -109.6961 248° West 393 452 43,000  Level Denver Center
Thu 02:53:25 PM 37.3053 -109.8353 247° West 392 451 43,000  Level Denver Center
Thu 02:54:26 PM 37.2647 -109.9569 247° West 392 451 43,000  Level Denver Center
Thu 02:55:29 PM 37.2303 -110.0564 247° West 392 451 43,000  Level Denver Center
Thu 02:56:30 PM 37.1775 -110.2094 247° West 394 453 43,000  Level Denver Center
Thu 02:57:33 PM 37.1256 -110.3608 247° West 393 452 43,000  Level Denver Center
Thu 02:58:34 PM 37.0822 -110.4858 247° West 393 452 43,000  Level Denver Center
Thu 02:59:38 PM 37.0378 -110.6131 246° West 396 456 43,000  Level Denver Center
Thu 03:00:39 PM 36.9944 -110.7389 247° West 395 455 43,000  Level Denver Center
Thu 03:01:40 PM 36.9503 -110.8642 246° West 396 456 43,000  Level Denver Center
Thu 03:02:44 PM 36.9050 -110.9906 246° West 396 456 43,000  Level Denver Center
Thu 03:03:44 PM 36.8600 -111.1156 246° West 396 456 43,000  Level Denver Center
Thu 03:04:45 PM 36.8167 -111.2417 247° West 396 456 43,000  Level Denver Center
Thu 03:05:48 PM 36.7633 -111.3917 246° West 395 455 43,000  Level Denver Center
Thu 03:06:50 PM 36.7267 -111.4917 245° Southwest 395 455 43,000  Level Denver Center
Thu 03:07:44 PM 36.6714 -111.6431 246° West 399 459 43,000  Level Los Center
Thu 03:08:46 PM 36.6267 -111.7678 246° West 396 456 43,000  Level Los Center
Thu 03:09:49 PM 36.5814 -111.8947 246° West 399 459 43,000  Level Los Center
Thu 03:10:51 PM 36.5353 -112.0225 246° West 404 465 43,000  Level Los Center
Thu 03:11:53 PM 36.4878 -112.1519 245° Southwest 408 470 43,000  Level Los Center
Thu 03:12:55 PM 36.4403 -112.2814 246° West 410 472 43,000  Level Los Center
Thu 03:13:57 PM 36.3828 -112.4375 245° Southwest 413 475 43,000  Level Los Center
Thu 03:14:59 PM 36.3342 -112.5669 245° Southwest 413 475 43,000  Level Los Center
Thu 03:16:02 PM 36.2861 -112.6964 245° Southwest 414 476 43,000  Level Los Center
Thu 03:17:04 PM 36.2375 -112.8264 245° Southwest 415 478 43,000  Level Los Center
Thu 03:18:06 PM 36.1889 -112.9558 245° Southwest 415 478 43,000  Level Los Center
Thu 03:19:08 PM 36.1394 -113.0867 245° Southwest 418 481 43,000  Level Los Center
Thu 03:20:10 PM 36.0811 -113.2422 245° Southwest 416 479 43,000  Level Los Center
Thu 03:21:13 PM 36.0372 -113.3600 245° Southwest 415 478 43,000  Level Los Center
Thu 03:22:15 PM 35.9878 -113.4886 245° Southwest 415 478 43,000  Level Los Center
Thu 03:23:17 PM 35.9264 -113.6436 244° Southwest 417 480 43,000  Level Los Center
Thu 03:24:19 PM 35.8772 -113.7725 245° Southwest 415 478 43,000  Level Los Center
Thu 03:25:21 PM 35.8275 -113.9011 245° Southwest 416 479 43,000  Level Los Center
Thu 03:26:24 PM 35.7775 -114.0317 245° Southwest 419 482 43,000  Level Los Center
Thu 03:27:26 PM 35.7281 -114.1603 245° Southwest 417 480 43,000  Level Los Center
Thu 03:28:28 PM 35.6772 -114.2903 244° Southwest 420 483 43,000 -677 Level Los Center
Thu 03:29:30 PM 35.6275 -114.4175 244° Southwest 415 478 41,600 -1,935 Descending Los Center
Thu 03:30:32 PM 35.5625 -114.5808 244° Southwest 438 504 39,000 -2,274 Descending Los Center
Thu 03:31:34 PM 35.5083 -114.7197 244° Southwest 448 516 36,900 -2,064 Descending Los Center
Thu 03:32:37 PM 35.4550 -114.8544 244° Southwest 442 509 34,700 -1,392 Descending Los Center
Thu 03:33:39 PM 35.4008 -114.9878 244° Southwest 436 502 34,000 -629 Descending Los Center
Thu 03:34:41 PM 35.3472 -115.1228 244° Southwest 438 504 33,400 -871 Descending Los Center
Thu 03:35:43 PM 35.2928 -115.2575 244° Southwest 440 506 32,200 -1,258 Descending Los Center
Thu 03:36:45 PM 35.2272 -115.4194 244° Southwest 441 507 30,800 -1,296 Descending Los Center
Thu 03:37:48 PM 35.1728 -115.5553 244° Southwest 437 503 29,500 -1,200 Descending Los Center
Thu 03:38:50 PM 35.1206 -115.6822 243° Southwest 422 486 28,300 -1,161 Descending Los Center
Thu 03:39:52 PM 35.0697 -115.8064 243° Southwest 412 474 27,100 -1,161 Descending Los Center
Thu 03:40:54 PM 35.0194 -115.9300 244° Southwest 407 468 25,900 -1,161 Descending Los Center
Thu 03:41:56 PM 34.9683 -116.0492 242° Southwest 402 463 24,700 -912 Descending Los Center
Thu 03:42:59 PM 34.9175 -116.1694 243° Southwest 401 461 24,000 -336 Descending Los Center
Thu 03:44:01 PM 34.8606 -116.3106 244° Southwest 393 452 24,000 -339 Level Los Center
Thu 03:45:03 PM 34.8122 -116.4281 243° Southwest 389 448 23,300 -1,065 Descending Los Center
Thu 03:46:05 PM 34.7883 -116.5542 257° West 384 442 21,800 -1,452 Descending Los Center
Thu 03:47:07 PM 34.7756 -116.6825 263° West 383 441 20,300 -864 Descending Los Center
Thu 03:48:10 PM 34.7642 -116.8061 264° West 372 428 20,000 -144 Descending Los Center
Thu 03:49:12 PM 34.7511 -116.9311 263° West 372 428 20,000 -629 Level Los Center
Thu 03:50:14 PM 34.7356 -117.0786 263° West 366 421 18,700 -1,161 Descending Los Center
Thu 03:51:16 PM 34.7228 -117.1997 263° West 361 415 17,600 -1,113 Descending Los Center
Thu 03:52:18 PM 34.7108 -117.3239 263° West 365 420 16,400 -1,161 Descending Los Center
Thu 03:53:20 PM 34.6972 -117.4481 262° West 369 425 15,200 -1,104 Descending Los Center
Thu 03:54:23 PM 34.6844 -117.5725 263° West 368 423 14,100 -1,056 Descending Los Center
Thu 03:55:25 PM 34.6708 -117.6956 262° West 365 420 13,000 -532 Descending Los Center
Thu 03:56:27 PM 34.6569 -117.8175 262° West 363 418 13,000  Level Los Center
Thu 03:57:29 PM 34.6419 -117.9681 263° West 371 427 13,000 -484 Level Los Center
Thu 03:58:31 PM 34.6261 -118.0897 261° West 367 422 12,000 -1,355 Descending Los Center
Thu 03:59:33 PM 34.5997 -118.2097 255° West 340 391 10,200 -1,584 Descending Los Center
Thu 04:00:36 PM 34.5772 -118.3075 254° West 309 356 8,700 -1,008 Descending Los Center
Thu 04:01:38 PM 34.5553 -118.4036 255° West 299 344 8,100 -823 Descending Los Center
Thu 04:02:40 PM 34.5092 -118.4828 235° Southwest 291 335 7,000 -1,016 Descending Los Center
Thu 04:03:42 PM 34.4506 -118.5508 224° Southwest 291 335 6,000 -484 Descending Los Center
Thu 04:04:44 PM 34.3878 -118.6086 217° Southwest 244 281 6,000  Level Los Center
Thu 04:05:50 PM 34.3217 -118.6494 207° Southwest 266 306 6,000 -726 Level Los Center
Thu 04:06:48 PM 34.2469 -118.6525 182° South 273 314 4,500 -1,167 Descending Los Center
Thu 04:07:38 PM 34.2000 -118.6000 137° Southeast 231 266 3,900 -818 Descending Southern TRACON
Thu 04:08:38 PM 34.2000 -118.5333 90° East 187 215 3,000 -650 Descending Southern TRACON
Thu 04:09:38 PM 34.2000 -118.4667 90° East 170 196 2,600 -650 Descending Southern TRACON
Thu 04:10:38 PM 34.2000 -118.4167 90° East 162 186 1,700 -681 Descending Southern TRACON
Thu 04:11:59 PM 34.1989 -118.3550 91° East 172 198 1,000 -519 Descending Los Center
Thu 04:13:00 PM 34.2000 -118.3500 90° East  Level FlightAware
Thu 04:20:00 PM 34.2007 -118.3587 90° East  Level Estimated

Login

Don't have an account? Register now (free) for customized features, flight alerts, and more!